sensor_id;sensor_type;location;lat;lon;timestamp;P1;durP1;ratioP1;P2;durP2;ratioP2
59766;SDS011;46248;58.364;25.582;2023-12-04T00:00:59;15.20;;;5.13;;
59766;SDS011;46248;58.364;25.582;2023-12-04T00:04:21;13.48;;;5.28;;
59766;SDS011;46248;58.364;25.582;2023-12-04T00:07:45;11.52;;;4.50;;
59766;SDS011;46248;58.364;25.582;2023-12-04T00:11:08;10.38;;;4.45;;
59766;SDS011;46248;58.364;25.582;2023-12-04T00:14:30;8.90;;;4.15;;
59766;SDS011;46248;58.364;25.582;2023-12-04T00:17:52;8.05;;;4.10;;
59766;SDS011;46248;58.364;25.582;2023-12-04T00:21:14;14.43;;;6.32;;
59766;SDS011;46248;58.364;25.582;2023-12-04T00:24:38;11.90;;;4.88;;
59766;SDS011;46248;58.364;25.582;2023-12-04T00:28:00;13.13;;;5.13;;
59766;SDS011;46248;58.364;25.582;2023-12-04T00:31:21;11.55;;;4.03;;
59766;SDS011;46248;58.364;25.582;2023-12-04T00:34:44;9.98;;;4.47;;
59766;SDS011;46248;58.364;25.582;2023-12-04T00:38:05;9.52;;;4.65;;
59766;SDS011;46248;58.364;25.582;2023-12-04T00:41:29;8.85;;;3.72;;
59766;SDS011;46248;58.364;25.582;2023-12-04T00:44:51;9.13;;;3.90;;
59766;SDS011;46248;58.364;25.582;2023-12-04T00:48:12;11.07;;;5.20;;
59766;SDS011;46248;58.364;25.582;2023-12-04T00:51:38;9.23;;;3.78;;
59766;SDS011;46248;58.364;25.582;2023-12-04T00:55:00;13.35;;;5.15;;
59766;SDS011;46248;58.364;25.582;2023-12-04T00:58:23;9.13;;;4.25;;
59766;SDS011;46248;58.364;25.582;2023-12-04T01:01:45;15.05;;;4.97;;
59766;SDS011;46248;58.364;25.582;2023-12-04T01:05:07;14.18;;;5.70;;
59766;SDS011;46248;58.364;25.582;2023-12-04T01:08:29;8.80;;;4.00;;
59766;SDS011;46248;58.364;25.582;2023-12-04T01:11:51;10.13;;;3.78;;
59766;SDS011;46248;58.364;25.582;2023-12-04T01:15:15;7.95;;;3.35;;
59766;SDS011;46248;58.364;25.582;2023-12-04T01:18:36;9.68;;;4.32;;
59766;SDS011;46248;58.364;25.582;2023-12-04T01:21:58;13.68;;;5.78;;
59766;SDS011;46248;58.364;25.582;2023-12-04T01:25:20;13.68;;;5.47;;
59766;SDS011;46248;58.364;25.582;2023-12-04T01:28:42;12.80;;;5.28;;
59766;SDS011;46248;58.364;25.582;2023-12-04T01:32:05;12.55;;;4.78;;
59766;SDS011;46248;58.364;25.582;2023-12-04T01:35:27;9.60;;;4.60;;
59766;SDS011;46248;58.364;25.582;2023-12-04T01:38:49;12.75;;;5.35;;
59766;SDS011;46248;58.364;25.582;2023-12-04T01:42:11;15.30;;;5.82;;
59766;SDS011;46248;58.364;25.582;2023-12-04T01:45:33;13.18;;;4.55;;
59766;SDS011;46248;58.364;25.582;2023-12-04T01:48:57;16.08;;;6.63;;
59766;SDS011;46248;58.364;25.582;2023-12-04T01:52:20;16.17;;;5.72;;
59766;SDS011;46248;58.364;25.582;2023-12-04T01:55:42;14.35;;;5.70;;
59766;SDS011;46248;58.364;25.582;2023-12-04T01:59:04;13.55;;;6.65;;
59766;SDS011;46248;58.364;25.582;2023-12-04T02:02:26;18.02;;;6.47;;
59766;SDS011;46248;58.364;25.582;2023-12-04T02:05:51;10.93;;;5.55;;
59766;SDS011;46248;58.364;25.582;2023-12-04T02:09:13;13.85;;;5.55;;
59766;SDS011;46248;58.364;25.582;2023-12-04T02:12:36;11.77;;;4.68;;
59766;SDS011;46248;58.364;25.582;2023-12-04T02:15:58;12.45;;;5.40;;
59766;SDS011;46248;58.364;25.582;2023-12-04T02:19:24;8.65;;;4.05;;
59766;SDS011;46248;58.364;25.582;2023-12-04T02:22:48;13.90;;;4.93;;
59766;SDS011;46248;58.364;25.582;2023-12-04T02:26:12;12.35;;;5.15;;
59766;SDS011;46248;58.364;25.582;2023-12-04T02:29:39;10.18;;;4.20;;
59766;SDS011;46248;58.364;25.582;2023-12-04T02:33:04;16.13;;;7.35;;
59766;SDS011;46248;58.364;25.582;2023-12-04T02:36:28;23.00;;;9.32;;
59766;SDS011;46248;58.364;25.582;2023-12-04T02:39:52;15.82;;;6.07;;
59766;SDS011;46248;58.364;25.582;2023-12-04T02:43:17;13.35;;;4.45;;
59766;SDS011;46248;58.364;25.582;2023-12-04T02:46:39;14.02;;;4.95;;
59766;SDS011;46248;58.364;25.582;2023-12-04T02:50:01;10.93;;;4.50;;
59766;SDS011;46248;58.364;25.582;2023-12-04T02:53:23;15.50;;;5.00;;
59766;SDS011;46248;58.364;25.582;2023-12-04T02:56:44;6.90;;;3.63;;
59766;SDS011;46248;58.364;25.582;2023-12-04T03:00:08;12.85;;;5.57;;
59766;SDS011;46248;58.364;25.582;2023-12-04T03:03:31;7.40;;;3.90;;
59766;SDS011;46248;58.364;25.582;2023-12-04T03:06:53;11.88;;;4.90;;
59766;SDS011;46248;58.364;25.582;2023-12-04T03:10:17;9.10;;;4.20;;
59766;SDS011;46248;58.364;25.582;2023-12-04T03:13:39;10.70;;;4.65;;
59766;SDS011;46248;58.364;25.582;2023-12-04T03:17:02;10.52;;;3.92;;
59766;SDS011;46248;58.364;25.582;2023-12-04T03:20:24;9.68;;;4.60;;
59766;SDS011;46248;58.364;25.582;2023-12-04T03:23:46;9.48;;;3.90;;
59766;SDS011;46248;58.364;25.582;2023-12-04T03:27:07;9.65;;;4.82;;
59766;SDS011;46248;58.364;25.582;2023-12-04T03:30:29;8.68;;;3.42;;
59766;SDS011;46248;58.364;25.582;2023-12-04T03:33:53;9.20;;;3.72;;
59766;SDS011;46248;58.364;25.582;2023-12-04T03:37:15;8.40;;;3.95;;
59766;SDS011;46248;58.364;25.582;2023-12-04T03:40:37;8.35;;;3.90;;
59766;SDS011;46248;58.364;25.582;2023-12-04T03:43:59;12.65;;;6.72;;
59766;SDS011;46248;58.364;25.582;2023-12-04T03:47:21;12.45;;;6.47;;
59766;SDS011;46248;58.364;25.582;2023-12-04T03:50:46;15.18;;;5.80;;
59766;SDS011;46248;58.364;25.582;2023-12-04T03:54:08;11.15;;;5.30;;
59766;SDS011;46248;58.364;25.582;2023-12-04T03:57:30;9.15;;;4.35;;
59766;SDS011;46248;58.364;25.582;2023-12-04T04:00:52;13.63;;;5.93;;
59766;SDS011;46248;58.364;25.582;2023-12-04T04:04:14;9.88;;;4.72;;
59766;SDS011;46248;58.364;25.582;2023-12-04T04:07:38;11.38;;;4.93;;
59766;SDS011;46248;58.364;25.582;2023-12-04T04:11:01;8.57;;;4.35;;
59766;SDS011;46248;58.364;25.582;2023-12-04T04:14:23;11.65;;;4.30;;
59766;SDS011;46248;58.364;25.582;2023-12-04T04:17:45;10.13;;;4.65;;
59766;SDS011;46248;58.364;25.582;2023-12-04T04:21:07;14.90;;;6.40;;
59766;SDS011;46248;58.364;25.582;2023-12-04T04:24:31;14.07;;;6.88;;
59766;SDS011;46248;58.364;25.582;2023-12-04T04:27:53;11.13;;;4.85;;
59766;SDS011;46248;58.364;25.582;2023-12-04T04:31:14;12.02;;;4.15;;
59766;SDS011;46248;58.364;25.582;2023-12-04T04:34:36;16.05;;;6.07;;
59766;SDS011;46248;58.364;25.582;2023-12-04T04:37:58;16.08;;;6.15;;
59766;SDS011;46248;58.364;25.582;2023-12-04T04:41:21;16.65;;;6.10;;
59766;SDS011;46248;58.364;25.582;2023-12-04T04:44:43;11.57;;;5.88;;
59766;SDS011;46248;58.364;25.582;2023-12-04T04:48:05;13.35;;;5.30;;
59766;SDS011;46248;58.364;25.582;2023-12-04T04:51:27;11.65;;;6.22;;
59766;SDS011;46248;58.364;25.582;2023-12-04T04:54:49;17.67;;;7.82;;
59766;SDS011;46248;58.364;25.582;2023-12-04T04:58:13;22.40;;;6.85;;
59766;SDS011;46248;58.364;25.582;2023-12-04T05:01:34;18.10;;;7.30;;
59766;SDS011;46248;58.364;25.582;2023-12-04T05:04:56;16.63;;;7.68;;
59766;SDS011;46248;58.364;25.582;2023-12-04T05:08:18;12.20;;;5.10;;
59766;SDS011;46248;58.364;25.582;2023-12-04T05:11:40;12.25;;;5.47;;
59766;SDS011;46248;58.364;25.582;2023-12-04T05:15:04;14.75;;;6.57;;
59766;SDS011;46248;58.364;25.582;2023-12-04T05:18:27;12.02;;;5.88;;
59766;SDS011;46248;58.364;25.582;2023-12-04T05:21:49;11.75;;;5.05;;
59766;SDS011;46248;58.364;25.582;2023-12-04T05:25:12;14.13;;;5.57;;
59766;SDS011;46248;58.364;25.582;2023-12-04T05:28:34;11.38;;;4.95;;
59766;SDS011;46248;58.364;25.582;2023-12-04T05:31:57;13.15;;;4.95;;
59766;SDS011;46248;58.364;25.582;2023-12-04T05:35:19;14.32;;;6.78;;
59766;SDS011;46248;58.364;25.582;2023-12-04T05:38:41;17.73;;;6.30;;
59766;SDS011;46248;58.364;25.582;2023-12-04T05:42:02;15.05;;;5.90;;
59766;SDS011;46248;58.364;25.582;2023-12-04T05:45:24;11.38;;;4.80;;
59766;SDS011;46248;58.364;25.582;2023-12-04T05:48:48;10.55;;;5.25;;
59766;SDS011;46248;58.364;25.582;2023-12-04T05:52:10;11.45;;;5.30;;
59766;SDS011;46248;58.364;25.582;2023-12-04T05:55:32;15.35;;;6.40;;
59766;SDS011;46248;58.364;25.582;2023-12-04T05:58:54;13.30;;;6.00;;
59766;SDS011;46248;58.364;25.582;2023-12-04T06:02:16;12.85;;;6.15;;
59766;SDS011;46248;58.364;25.582;2023-12-04T06:05:39;18.13;;;8.43;;
59766;SDS011;46248;58.364;25.582;2023-12-04T06:09:01;20.73;;;9.02;;
59766;SDS011;46248;58.364;25.582;2023-12-04T06:12:23;36.45;;;16.33;;
59766;SDS011;46248;58.364;25.582;2023-12-04T06:15:45;37.28;;;19.48;;
59766;SDS011;46248;58.364;25.582;2023-12-04T06:19:07;43.40;;;17.92;;
59766;SDS011;46248;58.364;25.582;2023-12-04T06:22:31;32.28;;;14.48;;
59766;SDS011;46248;58.364;25.582;2023-12-04T06:25:54;33.55;;;15.90;;
59766;SDS011;46248;58.364;25.582;2023-12-04T06:29:16;34.33;;;16.33;;
59766;SDS011;46248;58.364;25.582;2023-12-04T06:32:40;33.25;;;16.40;;
59766;SDS011;46248;58.364;25.582;2023-12-04T06:36:02;46.67;;;19.00;;
59766;SDS011;46248;58.364;25.582;2023-12-04T06:39:27;30.40;;;14.77;;
59766;SDS011;46248;58.364;25.582;2023-12-04T06:42:54;37.55;;;19.35;;
59766;SDS011;46248;58.364;25.582;2023-12-04T06:46:17;36.65;;;17.25;;
59766;SDS011;46248;58.364;25.582;2023-12-04T06:49:41;35.67;;;16.88;;
59766;SDS011;46248;58.364;25.582;2023-12-04T06:53:04;37.97;;;16.83;;
59766;SDS011;46248;58.364;25.582;2023-12-04T06:56:27;44.58;;;21.00;;
59766;SDS011;46248;58.364;25.582;2023-12-04T06:59:49;38.92;;;18.60;;
59766;SDS011;46248;58.364;25.582;2023-12-04T07:03:10;43.50;;;17.02;;
59766;SDS011;46248;58.364;25.582;2023-12-04T07:06:32;38.10;;;15.75;;
59766;SDS011;46248;58.364;25.582;2023-12-04T07:09:55;36.88;;;16.08;;
59766;SDS011;46248;58.364;25.582;2023-12-04T07:13:19;40.45;;;17.05;;
59766;SDS011;46248;58.364;25.582;2023-12-04T07:16:41;31.40;;;15.63;;
59766;SDS011;46248;58.364;25.582;2023-12-04T07:20:04;35.25;;;15.88;;
59766;SDS011;46248;58.364;25.582;2023-12-04T07:23:27;31.80;;;16.33;;
59766;SDS011;46248;58.364;25.582;2023-12-04T07:26:49;46.83;;;19.73;;
59766;SDS011;46248;58.364;25.582;2023-12-04T07:30:12;50.50;;;22.77;;
59766;SDS011;46248;58.364;25.582;2023-12-04T07:33:38;51.85;;;22.90;;
59766;SDS011;46248;58.364;25.582;2023-12-04T07:37:00;37.00;;;18.20;;
59766;SDS011;46248;58.364;25.582;2023-12-04T07:40:23;52.30;;;28.05;;
59766;SDS011;46248;58.364;25.582;2023-12-04T07:43:45;46.20;;;22.52;;
59766;SDS011;46248;58.364;25.582;2023-12-04T07:47:08;43.78;;;22.45;;
59766;SDS011;46248;58.364;25.582;2023-12-04T07:50:30;44.15;;;21.73;;
59766;SDS011;46248;58.364;25.582;2023-12-04T07:53:52;38.63;;;17.23;;
59766;SDS011;46248;58.364;25.582;2023-12-04T07:57:14;38.50;;;19.52;;
59766;SDS011;46248;58.364;25.582;2023-12-04T08:00:36;32.20;;;16.23;;
59766;SDS011;46248;58.364;25.582;2023-12-04T08:04:00;28.35;;;14.15;;
59766;SDS011;46248;58.364;25.582;2023-12-04T08:07:22;30.88;;;14.90;;
59766;SDS011;46248;58.364;25.582;2023-12-04T08:10:44;32.50;;;16.02;;
59766;SDS011;46248;58.364;25.582;2023-12-04T08:14:06;32.15;;;14.73;;
59766;SDS011;46248;58.364;25.582;2023-12-04T08:17:28;32.97;;;15.25;;
59766;SDS011;46248;58.364;25.582;2023-12-04T08:20:54;30.10;;;13.98;;
59766;SDS011;46248;58.364;25.582;2023-12-04T08:24:16;30.55;;;15.88;;
59766;SDS011;46248;58.364;25.582;2023-12-04T08:27:38;30.27;;;15.32;;
59766;SDS011;46248;58.364;25.582;2023-12-04T08:31:00;33.92;;;20.35;;
59766;SDS011;46248;58.364;25.582;2023-12-04T08:34:22;30.65;;;16.80;;
59766;SDS011;46248;58.364;25.582;2023-12-04T08:37:46;33.83;;;17.52;;
59766;SDS011;46248;58.364;25.582;2023-12-04T08:41:08;36.58;;;19.08;;
59766;SDS011;46248;58.364;25.582;2023-12-04T08:44:30;40.25;;;18.73;;
59766;SDS011;46248;58.364;25.582;2023-12-04T08:47:52;35.35;;;17.38;;
59766;SDS011;46248;58.364;25.582;2023-12-04T08:51:17;35.55;;;18.75;;
59766;SDS011;46248;58.364;25.582;2023-12-04T08:54:41;40.03;;;17.70;;
59766;SDS011;46248;58.364;25.582;2023-12-04T08:58:03;36.30;;;17.80;;
59766;SDS011;46248;58.364;25.582;2023-12-04T09:01:26;34.15;;;16.08;;
59766;SDS011;46248;58.364;25.582;2023-12-04T09:04:48;32.92;;;15.75;;
59766;SDS011;46248;58.364;25.582;2023-12-04T09:08:10;23.42;;;12.98;;
59766;SDS011;46248;58.364;25.582;2023-12-04T09:11:53;25.73;;;11.52;;
59766;SDS011;46248;58.364;25.582;2023-12-04T09:15:14;22.80;;;9.25;;
59766;SDS011;46248;58.364;25.582;2023-12-04T09:18:37;15.48;;;8.80;;
59766;SDS011;46248;58.364;25.582;2023-12-04T09:21:59;31.35;;;15.02;;
59766;SDS011;46248;58.364;25.582;2023-12-04T09:25:36;25.10;;;13.43;;
59766;SDS011;46248;58.364;25.582;2023-12-04T09:29:00;24.15;;;10.73;;
59766;SDS011;46248;58.364;25.582;2023-12-04T09:32:22;16.58;;;8.93;;
59766;SDS011;46248;58.364;25.582;2023-12-04T09:35:45;15.90;;;8.40;;
59766;SDS011;46248;58.364;25.582;2023-12-04T09:39:07;12.07;;;6.60;;
59766;SDS011;46248;58.364;25.582;2023-12-04T09:42:29;14.05;;;7.00;;
59766;SDS011;46248;58.364;25.582;2023-12-04T09:45:53;16.20;;;7.35;;
59766;SDS011;46248;58.364;25.582;2023-12-04T09:49:15;12.07;;;7.00;;
59766;SDS011;46248;58.364;25.582;2023-12-04T09:52:39;11.40;;;6.03;;
59766;SDS011;46248;58.364;25.582;2023-12-04T09:56:03;14.00;;;6.57;;
59766;SDS011;46248;58.364;25.582;2023-12-04T09:59:25;13.95;;;7.60;;
59766;SDS011;46248;58.364;25.582;2023-12-04T10:02:51;15.70;;;6.50;;
59766;SDS011;46248;58.364;25.582;2023-12-04T10:06:14;15.30;;;7.28;;
59766;SDS011;46248;58.364;25.582;2023-12-04T10:09:37;13.43;;;6.28;;
59766;SDS011;46248;58.364;25.582;2023-12-04T10:12:59;13.38;;;7.18;;
59766;SDS011;46248;58.364;25.582;2023-12-04T10:16:32;18.95;;;8.32;;
59766;SDS011;46248;58.364;25.582;2023-12-04T10:19:57;21.58;;;9.45;;
59766;SDS011;46248;58.364;25.582;2023-12-04T10:23:37;21.23;;;10.00;;
59766;SDS011;46248;58.364;25.582;2023-12-04T10:27:00;28.80;;;12.82;;
59766;SDS011;46248;58.364;25.582;2023-12-04T10:30:26;29.25;;;13.95;;
59766;SDS011;46248;58.364;25.582;2023-12-04T10:33:49;27.35;;;13.25;;
59766;SDS011;46248;58.364;25.582;2023-12-04T10:37:12;34.83;;;12.90;;
59766;SDS011;46248;58.364;25.582;2023-12-04T10:40:35;29.95;;;13.40;;
59766;SDS011;46248;58.364;25.582;2023-12-04T10:43:57;26.10;;;15.00;;
59766;SDS011;46248;58.364;25.582;2023-12-04T10:47:29;36.13;;;16.60;;
59766;SDS011;46248;58.364;25.582;2023-12-04T10:50:52;38.85;;;16.85;;
59766;SDS011;46248;58.364;25.582;2023-12-04T10:54:14;36.38;;;17.98;;
59766;SDS011;46248;58.364;25.582;2023-12-04T10:57:37;56.65;;;19.90;;
59766;SDS011;46248;58.364;25.582;2023-12-04T11:01:00;52.47;;;23.52;;
59766;SDS011;46248;58.364;25.582;2023-12-04T11:04:25;51.80;;;20.50;;
59766;SDS011;46248;58.364;25.582;2023-12-04T11:07:57;41.10;;;17.35;;
59766;SDS011;46248;58.364;25.582;2023-12-04T11:11:39;32.70;;;17.48;;
59766;SDS011;46248;58.364;25.582;2023-12-04T11:15:05;38.00;;;17.37;;
59766;SDS011;46248;58.364;25.582;2023-12-04T11:18:31;31.85;;;15.77;;
59766;SDS011;46248;58.364;25.582;2023-12-04T11:21:58;33.65;;;16.52;;
59766;SDS011;46248;58.364;25.582;2023-12-04T11:25:20;32.03;;;15.02;;
59766;SDS011;46248;58.364;25.582;2023-12-04T11:28:46;33.97;;;15.90;;
59766;SDS011;46248;58.364;25.582;2023-12-04T11:32:12;36.83;;;17.63;;
59766;SDS011;46248;58.364;25.582;2023-12-04T11:35:35;43.38;;;18.58;;
59766;SDS011;46248;58.364;25.582;2023-12-04T11:38:59;40.17;;;18.20;;
59766;SDS011;46248;58.364;25.582;2023-12-04T11:42:22;30.67;;;15.68;;
59766;SDS011;46248;58.364;25.582;2023-12-04T11:45:47;25.88;;;13.98;;
59766;SDS011;46248;58.364;25.582;2023-12-04T11:49:28;27.10;;;11.38;;
59766;SDS011;46248;58.364;25.582;2023-12-04T11:52:51;23.38;;;11.55;;
59766;SDS011;46248;58.364;25.582;2023-12-04T11:56:14;33.63;;;16.60;;
59766;SDS011;46248;58.364;25.582;2023-12-04T11:59:36;43.05;;;22.77;;
59766;SDS011;46248;58.364;25.582;2023-12-04T12:03:02;32.63;;;15.32;;
59766;SDS011;46248;58.364;25.582;2023-12-04T12:06:42;29.10;;;15.18;;
59766;SDS011;46248;58.364;25.582;2023-12-04T12:10:04;26.38;;;11.63;;
59766;SDS011;46248;58.364;25.582;2023-12-04T12:13:26;20.90;;;11.25;;
59766;SDS011;46248;58.364;25.582;2023-12-04T12:16:48;25.98;;;12.35;;
59766;SDS011;46248;58.364;25.582;2023-12-04T12:20:12;18.70;;;10.70;;
59766;SDS011;46248;58.364;25.582;2023-12-04T12:23:35;25.70;;;12.32;;
59766;SDS011;46248;58.364;25.582;2023-12-04T12:26:57;25.75;;;12.63;;
59766;SDS011;46248;58.364;25.582;2023-12-04T12:30:20;24.40;;;13.15;;
59766;SDS011;46248;58.364;25.582;2023-12-04T12:33:42;21.27;;;11.90;;
59766;SDS011;46248;58.364;25.582;2023-12-04T12:37:05;24.50;;;12.88;;
59766;SDS011;46248;58.364;25.582;2023-12-04T12:40:27;25.88;;;11.13;;
59766;SDS011;46248;58.364;25.582;2023-12-04T12:43:51;28.05;;;14.15;;
59766;SDS011;46248;58.364;25.582;2023-12-04T12:47:14;22.92;;;11.63;;
59766;SDS011;46248;58.364;25.582;2023-12-04T12:50:36;20.10;;;10.02;;
59766;SDS011;46248;58.364;25.582;2023-12-04T12:54:00;21.30;;;10.38;;
59766;SDS011;46248;58.364;25.582;2023-12-04T12:57:21;19.75;;;9.23;;
59766;SDS011;46248;58.364;25.582;2023-12-04T13:00:45;18.88;;;8.80;;
59766;SDS011;46248;58.364;25.582;2023-12-04T13:04:08;16.80;;;7.88;;
59766;SDS011;46248;58.364;25.582;2023-12-04T13:07:31;23.88;;;10.75;;
59766;SDS011;46248;58.364;25.582;2023-12-04T13:10:54;30.17;;;13.93;;
59766;SDS011;46248;58.364;25.582;2023-12-04T13:14:17;30.13;;;12.80;;
59766;SDS011;46248;58.364;25.582;2023-12-04T13:17:39;24.80;;;11.25;;
59766;SDS011;46248;58.364;25.582;2023-12-04T13:21:01;22.77;;;10.60;;
59766;SDS011;46248;58.364;25.582;2023-12-04T13:24:24;24.05;;;12.65;;
59766;SDS011;46248;58.364;25.582;2023-12-04T13:27:49;21.77;;;11.15;;
59766;SDS011;46248;58.364;25.582;2023-12-04T13:31:11;18.77;;;10.55;;
59766;SDS011;46248;58.364;25.582;2023-12-04T13:34:32;21.17;;;10.10;;
59766;SDS011;46248;58.364;25.582;2023-12-04T13:37:55;23.55;;;10.68;;
59766;SDS011;46248;58.364;25.582;2023-12-04T13:41:19;22.77;;;12.13;;
59766;SDS011;46248;58.364;25.582;2023-12-04T13:44:56;24.58;;;11.75;;
59766;SDS011;46248;58.364;25.582;2023-12-04T13:48:18;23.05;;;12.60;;
59766;SDS011;46248;58.364;25.582;2023-12-04T13:51:41;23.40;;;12.40;;
59766;SDS011;46248;58.364;25.582;2023-12-04T13:55:04;33.83;;;14.60;;
59766;SDS011;46248;58.364;25.582;2023-12-04T13:58:35;37.95;;;15.50;;
59766;SDS011;46248;58.364;25.582;2023-12-04T14:02:04;40.55;;;19.73;;
59766;SDS011;46248;58.364;25.582;2023-12-04T14:05:31;38.37;;;18.53;;
59766;SDS011;46248;58.364;25.582;2023-12-04T14:08:55;34.05;;;17.30;;
59766;SDS011;46248;58.364;25.582;2023-12-04T14:12:18;36.53;;;18.08;;
59766;SDS011;46248;58.364;25.582;2023-12-04T14:15:40;32.67;;;15.88;;
59766;SDS011;46248;58.364;25.582;2023-12-04T14:19:04;37.88;;;15.35;;
59766;SDS011;46248;58.364;25.582;2023-12-04T14:22:26;30.65;;;14.93;;
59766;SDS011;46248;58.364;25.582;2023-12-04T14:25:48;28.92;;;13.32;;
59766;SDS011;46248;58.364;25.582;2023-12-04T14:29:10;21.90;;;12.35;;
59766;SDS011;46248;58.364;25.582;2023-12-04T14:32:34;21.85;;;11.10;;
59766;SDS011;46248;58.364;25.582;2023-12-04T14:36:08;22.80;;;11.45;;
59766;SDS011;46248;58.364;25.582;2023-12-04T14:39:32;28.20;;;12.35;;
59766;SDS011;46248;58.364;25.582;2023-12-04T14:42:53;27.98;;;13.90;;
59766;SDS011;46248;58.364;25.582;2023-12-04T14:46:16;25.48;;;12.38;;
59766;SDS011;46248;58.364;25.582;2023-12-04T14:49:38;26.45;;;12.27;;
59766;SDS011;46248;58.364;25.582;2023-12-04T14:53:02;26.63;;;13.23;;
59766;SDS011;46248;58.364;25.582;2023-12-04T14:56:36;33.13;;;16.05;;
59766;SDS011;46248;58.364;25.582;2023-12-04T15:00:21;39.92;;;20.67;;
59766;SDS011;46248;58.364;25.582;2023-12-04T15:03:59;46.35;;;19.38;;
59766;SDS011;46248;58.364;25.582;2023-12-04T15:07:38;43.22;;;18.98;;
59766;SDS011;46248;58.364;25.582;2023-12-04T15:11:24;49.78;;;23.88;;
59766;SDS011;46248;58.364;25.582;2023-12-04T15:15:06;56.75;;;27.20;;
59766;SDS011;46248;58.364;25.582;2023-12-04T15:18:45;47.17;;;23.23;;
59766;SDS011;46248;58.364;25.582;2023-12-04T15:22:34;88.53;;;35.50;;
59766;SDS011;46248;58.364;25.582;2023-12-04T15:25:57;75.93;;;33.97;;
59766;SDS011;46248;58.364;25.582;2023-12-04T15:29:21;96.65;;;38.08;;
59766;SDS011;46248;58.364;25.582;2023-12-04T15:32:43;54.97;;;24.90;;
59766;SDS011;46248;58.364;25.582;2023-12-04T15:36:06;44.53;;;21.08;;
59766;SDS011;46248;58.364;25.582;2023-12-04T15:39:29;54.22;;;24.88;;
59766;SDS011;46248;58.364;25.582;2023-12-04T15:42:52;56.47;;;25.45;;
59766;SDS011;46248;58.364;25.582;2023-12-04T15:46:16;53.42;;;25.05;;
59766;SDS011;46248;58.364;25.582;2023-12-04T15:49:38;46.40;;;23.27;;
59766;SDS011;46248;58.364;25.582;2023-12-04T15:52:59;40.47;;;21.42;;
59766;SDS011;46248;58.364;25.582;2023-12-04T15:56:22;36.20;;;19.33;;
59766;SDS011;46248;58.364;25.582;2023-12-04T15:59:43;34.10;;;16.90;;
59766;SDS011;46248;58.364;25.582;2023-12-04T16:03:07;25.40;;;12.45;;
59766;SDS011;46248;58.364;25.582;2023-12-04T16:06:29;40.38;;;18.65;;
59766;SDS011;46248;58.364;25.582;2023-12-04T16:09:51;29.48;;;14.70;;
59766;SDS011;46248;58.364;25.582;2023-12-04T16:13:13;31.15;;;13.38;;
59766;SDS011;46248;58.364;25.582;2023-12-04T16:16:36;26.88;;;14.85;;
59766;SDS011;46248;58.364;25.582;2023-12-04T16:20:00;51.03;;;22.08;;
59766;SDS011;46248;58.364;25.582;2023-12-04T16:23:23;58.25;;;22.25;;
59766;SDS011;46248;58.364;25.582;2023-12-04T16:26:44;58.45;;;23.98;;
59766;SDS011;46248;58.364;25.582;2023-12-04T16:30:07;61.35;;;20.63;;
59766;SDS011;46248;58.364;25.582;2023-12-04T16:33:29;71.65;;;26.17;;
59766;SDS011;46248;58.364;25.582;2023-12-04T16:36:53;46.03;;;19.23;;
59766;SDS011;46248;58.364;25.582;2023-12-04T16:40:14;30.50;;;15.60;;
59766;SDS011;46248;58.364;25.582;2023-12-04T16:43:36;31.63;;;15.45;;
59766;SDS011;46248;58.364;25.582;2023-12-04T16:46:58;32.85;;;15.10;;
59766;SDS011;46248;58.364;25.582;2023-12-04T16:50:20;82.55;;;28.55;;
59766;SDS011;46248;58.364;25.582;2023-12-04T16:53:45;72.88;;;26.65;;
59766;SDS011;46248;58.364;25.582;2023-12-04T16:57:07;46.25;;;17.05;;
59766;SDS011;46248;58.364;25.582;2023-12-04T17:00:30;35.00;;;14.40;;
59766;SDS011;46248;58.364;25.582;2023-12-04T17:03:52;36.72;;;16.15;;
59766;SDS011;46248;58.364;25.582;2023-12-04T17:07:15;30.60;;;13.45;;
59766;SDS011;46248;58.364;25.582;2023-12-04T17:10:38;32.92;;;13.23;;
59766;SDS011;46248;58.364;25.582;2023-12-04T17:14:00;35.42;;;16.27;;
59766;SDS011;46248;58.364;25.582;2023-12-04T17:17:23;36.10;;;16.25;;
59766;SDS011;46248;58.364;25.582;2023-12-04T17:20:45;38.58;;;17.50;;
59766;SDS011;46248;58.364;25.582;2023-12-04T17:24:06;33.80;;;15.40;;
59766;SDS011;46248;58.364;25.582;2023-12-04T17:27:30;37.13;;;17.30;;
59766;SDS011;46248;58.364;25.582;2023-12-04T17:30:52;44.78;;;20.20;;
59766;SDS011;46248;58.364;25.582;2023-12-04T17:34:14;29.67;;;15.45;;
59766;SDS011;46248;58.364;25.582;2023-12-04T17:37:36;38.08;;;17.08;;
59766;SDS011;46248;58.364;25.582;2023-12-04T17:40:57;35.08;;;17.60;;
59766;SDS011;46248;58.364;25.582;2023-12-04T17:44:21;43.63;;;19.48;;
59766;SDS011;46248;58.364;25.582;2023-12-04T17:47:42;37.97;;;17.98;;
59766;SDS011;46248;58.364;25.582;2023-12-04T17:51:05;36.15;;;16.20;;
59766;SDS011;46248;58.364;25.582;2023-12-04T17:54:28;38.35;;;16.83;;
59766;SDS011;46248;58.364;25.582;2023-12-04T17:57:50;30.92;;;16.15;;
59766;SDS011;46248;58.364;25.582;2023-12-04T18:01:15;28.60;;;15.45;;
59766;SDS011;46248;58.364;25.582;2023-12-04T18:04:37;33.38;;;17.60;;
59766;SDS011;46248;58.364;25.582;2023-12-04T18:07:59;34.40;;;15.68;;
59766;SDS011;46248;58.364;25.582;2023-12-04T18:11:22;35.15;;;16.63;;
59766;SDS011;46248;58.364;25.582;2023-12-04T18:14:44;30.40;;;14.02;;
59766;SDS011;46248;58.364;25.582;2023-12-04T18:18:07;39.58;;;15.52;;
59766;SDS011;46248;58.364;25.582;2023-12-04T18:21:30;27.67;;;12.10;;
59766;SDS011;46248;58.364;25.582;2023-12-04T18:24:52;41.13;;;16.92;;
59766;SDS011;46248;58.364;25.582;2023-12-04T18:28:15;32.83;;;14.68;;
59766;SDS011;46248;58.364;25.582;2023-12-04T18:31:38;37.00;;;18.20;;
59766;SDS011;46248;58.364;25.582;2023-12-04T18:35:02;33.28;;;15.95;;
59766;SDS011;46248;58.364;25.582;2023-12-04T18:38:26;25.85;;;12.05;;
59766;SDS011;46248;58.364;25.582;2023-12-04T18:41:53;27.20;;;13.80;;
59766;SDS011;46248;58.364;25.582;2023-12-04T18:45:16;21.15;;;10.23;;
59766;SDS011;46248;58.364;25.582;2023-12-04T18:48:39;19.95;;;11.23;;
59766;SDS011;46248;58.364;25.582;2023-12-04T18:52:06;24.52;;;12.23;;
59766;SDS011;46248;58.364;25.582;2023-12-04T18:55:28;27.10;;;11.40;;
59766;SDS011;46248;58.364;25.582;2023-12-04T18:58:50;20.20;;;10.38;;
59766;SDS011;46248;58.364;25.582;2023-12-04T19:02:12;20.35;;;10.25;;
59766;SDS011;46248;58.364;25.582;2023-12-04T19:05:33;20.88;;;9.50;;
59766;SDS011;46248;58.364;25.582;2023-12-04T19:08:57;18.30;;;8.90;;
59766;SDS011;46248;58.364;25.582;2023-12-04T19:12:19;14.63;;;6.63;;
59766;SDS011;46248;58.364;25.582;2023-12-04T19:15:41;16.67;;;8.00;;
59766;SDS011;46248;58.364;25.582;2023-12-04T19:19:03;14.02;;;6.50;;
59766;SDS011;46248;58.364;25.582;2023-12-04T19:22:26;10.82;;;6.88;;
59766;SDS011;46248;58.364;25.582;2023-12-04T19:25:49;10.98;;;6.15;;
59766;SDS011;46248;58.364;25.582;2023-12-04T19:29:13;15.80;;;7.47;;
59766;SDS011;46248;58.364;25.582;2023-12-04T19:32:46;15.63;;;7.70;;
59766;SDS011;46248;58.364;25.582;2023-12-04T19:36:09;17.70;;;6.97;;
59766;SDS011;46248;58.364;25.582;2023-12-04T19:39:32;15.00;;;6.50;;
59766;SDS011;46248;58.364;25.582;2023-12-04T19:42:55;16.50;;;8.60;;